Terminal Aerodrome Forecast
Issued by NWS Flagstaff, AZ

Home | Current Version | Previous Version | Text Only | Print | Product List | Glossary On
Versions: 1 2 3 4 5 6 7 8 9 10 11 12 13 14 15 16 17 18
000
FTUS45 KFGZ 201120
TAFINW
TAF
KINW 201120Z 2012/2112 12008KT P6SM SKC
     FM201500 16011G19KT P6SM FEW250
     FM201800 21027G37KT P6SM SCT250
     FM210200 22015G23KT P6SM SCT250=

USA.gov is the U.S. government's official web portal to all federal, state and local government web resources and services.